sensor_id;sensor_type;location;lat;lon;timestamp;P1;durP1;ratioP1;P2;durP2;ratioP2
422;SDS011;198;48.752;9.180;2024-03-02T00:02:00;23.60;;;8.50;;
422;SDS011;198;48.752;9.180;2024-03-02T00:04:26;21.90;;;10.13;;
422;SDS011;198;48.752;9.180;2024-03-02T00:06:52;17.13;;;9.23;;
422;SDS011;198;48.752;9.180;2024-03-02T00:09:20;23.73;;;9.27;;
422;SDS011;198;48.752;9.180;2024-03-02T00:11:45;18.13;;;8.07;;
422;SDS011;198;48.752;9.180;2024-03-02T00:14:11;24.43;;;9.70;;
422;SDS011;198;48.752;9.180;2024-03-02T00:16:37;27.73;;;8.90;;
422;SDS011;198;48.752;9.180;2024-03-02T00:19:03;22.27;;;10.80;;
422;SDS011;198;48.752;9.180;2024-03-02T00:21:30;21.37;;;8.33;;
422;SDS011;198;48.752;9.180;2024-03-02T00:23:56;19.80;;;9.17;;
422;SDS011;198;48.752;9.180;2024-03-02T00:26:23;19.90;;;9.73;;
422;SDS011;198;48.752;9.180;2024-03-02T00:28:48;18.47;;;8.70;;
422;SDS011;198;48.752;9.180;2024-03-02T00:31:15;17.30;;;7.73;;
422;SDS011;198;48.752;9.180;2024-03-02T00:33:44;17.40;;;8.13;;
422;SDS011;198;48.752;9.180;2024-03-02T00:36:14;21.00;;;8.20;;
422;SDS011;198;48.752;9.180;2024-03-02T00:38:47;12.83;;;7.07;;
422;SDS011;198;48.752;9.180;2024-03-02T00:41:24;20.67;;;8.40;;
422;SDS011;198;48.752;9.180;2024-03-02T00:46:24;22.50;;;9.30;;
422;SDS011;198;48.752;9.180;2024-03-02T00:48:54;16.33;;;7.70;;
422;SDS011;198;48.752;9.180;2024-03-02T00:51:21;14.43;;;7.83;;
422;SDS011;198;48.752;9.180;2024-03-02T00:53:54;15.20;;;7.60;;
422;SDS011;198;48.752;9.180;2024-03-02T00:56:21;18.57;;;8.50;;
422;SDS011;198;48.752;9.180;2024-03-02T00:58:48;15.53;;;7.53;;
422;SDS011;198;48.752;9.180;2024-03-02T01:01:14;16.27;;;7.50;;
422;SDS011;198;48.752;9.180;2024-03-02T01:03:41;17.57;;;8.87;;
422;SDS011;198;48.752;9.180;2024-03-02T01:06:07;20.27;;;7.60;;
422;SDS011;198;48.752;9.180;2024-03-02T01:08:33;18.00;;;9.50;;
422;SDS011;198;48.752;9.180;2024-03-02T01:10:59;14.37;;;7.67;;
422;SDS011;198;48.752;9.180;2024-03-02T01:13:25;16.87;;;8.53;;
422;SDS011;198;48.752;9.180;2024-03-02T01:15:51;12.07;;;7.27;;
422;SDS011;198;48.752;9.180;2024-03-02T01:18:16;18.30;;;8.10;;
422;SDS011;198;48.752;9.180;2024-03-02T01:20:42;25.83;;;7.90;;
422;SDS011;198;48.752;9.180;2024-03-02T01:23:07;18.60;;;8.40;;
422;SDS011;198;48.752;9.180;2024-03-02T01:25:33;22.23;;;8.10;;
422;SDS011;198;48.752;9.180;2024-03-02T01:27:58;20.07;;;8.57;;
422;SDS011;198;48.752;9.180;2024-03-02T01:30:24;22.07;;;9.43;;
422;SDS011;198;48.752;9.180;2024-03-02T01:32:49;20.80;;;10.07;;
422;SDS011;198;48.752;9.180;2024-03-02T01:35:15;24.00;;;10.03;;
422;SDS011;198;48.752;9.180;2024-03-02T01:37:41;21.13;;;8.60;;
422;SDS011;198;48.752;9.180;2024-03-02T01:40:06;17.90;;;8.20;;
422;SDS011;198;48.752;9.180;2024-03-02T01:42:34;26.90;;;8.70;;
422;SDS011;198;48.752;9.180;2024-03-02T01:45:01;17.63;;;8.07;;
422;SDS011;198;48.752;9.180;2024-03-02T01:47:27;19.40;;;9.30;;
422;SDS011;198;48.752;9.180;2024-03-02T01:49:52;20.30;;;8.23;;
422;SDS011;198;48.752;9.180;2024-03-02T01:52:18;21.80;;;10.57;;
422;SDS011;198;48.752;9.180;2024-03-02T01:54:43;27.13;;;8.00;;
422;SDS011;198;48.752;9.180;2024-03-02T01:57:09;22.40;;;8.90;;
422;SDS011;198;48.752;9.180;2024-03-02T01:59:35;20.90;;;8.77;;
422;SDS011;198;48.752;9.180;2024-03-02T02:02:00;16.67;;;8.00;;
422;SDS011;198;48.752;9.180;2024-03-02T02:04:26;20.80;;;9.60;;
422;SDS011;198;48.752;9.180;2024-03-02T02:06:53;20.63;;;8.40;;
422;SDS011;198;48.752;9.180;2024-03-02T02:09:19;17.97;;;8.20;;
422;SDS011;198;48.752;9.180;2024-03-02T02:11:44;23.70;;;9.20;;
422;SDS011;198;48.752;9.180;2024-03-02T02:14:10;22.90;;;9.63;;
422;SDS011;198;48.752;9.180;2024-03-02T02:16:36;23.47;;;10.50;;
422;SDS011;198;48.752;9.180;2024-03-02T02:19:01;22.00;;;9.80;;
422;SDS011;198;48.752;9.180;2024-03-02T02:21:28;23.60;;;9.93;;
422;SDS011;198;48.752;9.180;2024-03-02T02:23:53;20.10;;;8.77;;
422;SDS011;198;48.752;9.180;2024-03-02T02:26:19;22.00;;;9.13;;
422;SDS011;198;48.752;9.180;2024-03-02T02:28:44;17.47;;;8.00;;
422;SDS011;198;48.752;9.180;2024-03-02T02:31:15;19.80;;;9.70;;
422;SDS011;198;48.752;9.180;2024-03-02T02:33:41;18.73;;;8.10;;
422;SDS011;198;48.752;9.180;2024-03-02T02:36:07;20.10;;;9.23;;
422;SDS011;198;48.752;9.180;2024-03-02T02:38:33;18.33;;;8.33;;
422;SDS011;198;48.752;9.180;2024-03-02T02:41:05;20.73;;;8.90;;
422;SDS011;198;48.752;9.180;2024-03-02T02:43:31;23.77;;;9.50;;
422;SDS011;198;48.752;9.180;2024-03-02T02:45:56;17.27;;;7.87;;
422;SDS011;198;48.752;9.180;2024-03-02T02:48:22;18.40;;;7.70;;
422;SDS011;198;48.752;9.180;2024-03-02T02:50:47;16.70;;;8.20;;
422;SDS011;198;48.752;9.180;2024-03-02T02:53:13;25.27;;;9.50;;
422;SDS011;198;48.752;9.180;2024-03-02T02:55:41;24.97;;;9.80;;
422;SDS011;198;48.752;9.180;2024-03-02T02:58:08;19.57;;;8.57;;
422;SDS011;198;48.752;9.180;2024-03-02T03:00:34;17.70;;;8.20;;
422;SDS011;198;48.752;9.180;2024-03-02T03:03:01;19.30;;;9.43;;
422;SDS011;198;48.752;9.180;2024-03-02T03:05:27;21.73;;;9.50;;
422;SDS011;198;48.752;9.180;2024-03-02T03:07:53;26.57;;;9.40;;
422;SDS011;198;48.752;9.180;2024-03-02T03:10:19;27.17;;;11.10;;
422;SDS011;198;48.752;9.180;2024-03-02T03:12:47;20.67;;;9.33;;
422;SDS011;198;48.752;9.180;2024-03-02T03:15:12;23.37;;;9.13;;
422;SDS011;198;48.752;9.180;2024-03-02T03:17:39;20.90;;;9.10;;
422;SDS011;198;48.752;9.180;2024-03-02T03:20:04;23.10;;;9.13;;
422;SDS011;198;48.752;9.180;2024-03-02T03:22:35;22.03;;;10.20;;
422;SDS011;198;48.752;9.180;2024-03-02T03:25:01;23.50;;;9.10;;
422;SDS011;198;48.752;9.180;2024-03-02T03:27:27;29.30;;;10.63;;
422;SDS011;198;48.752;9.180;2024-03-02T03:29:52;22.20;;;10.60;;
422;SDS011;198;48.752;9.180;2024-03-02T03:32:19;25.13;;;10.27;;
422;SDS011;198;48.752;9.180;2024-03-02T03:34:44;25.37;;;10.83;;
422;SDS011;198;48.752;9.180;2024-03-02T03:37:11;27.27;;;10.10;;
422;SDS011;198;48.752;9.180;2024-03-02T03:39:37;25.30;;;10.83;;
422;SDS011;198;48.752;9.180;2024-03-02T03:42:07;23.67;;;9.30;;
422;SDS011;198;48.752;9.180;2024-03-02T03:44:50;30.70;;;12.50;;
422;SDS011;198;48.752;9.180;2024-03-02T03:48:18;26.80;;;11.10;;
422;SDS011;198;48.752;9.180;2024-03-02T03:51:36;21.90;;;9.90;;
422;SDS011;198;48.752;9.180;2024-03-02T03:54:32;29.97;;;11.33;;
422;SDS011;198;48.752;9.180;2024-03-02T03:57:49;21.03;;;9.80;;
422;SDS011;198;48.752;9.180;2024-03-02T04:00:35;24.37;;;10.17;;
422;SDS011;198;48.752;9.180;2024-03-02T04:03:08;21.27;;;9.30;;
422;SDS011;198;48.752;9.180;2024-03-02T04:05:57;25.17;;;9.63;;
422;SDS011;198;48.752;9.180;2024-03-02T04:09:06;19.87;;;10.07;;
422;SDS011;198;48.752;9.180;2024-03-02T04:15:23;20.23;;;9.50;;
422;SDS011;198;48.752;9.180;2024-03-02T04:18:17;24.97;;;10.40;;
422;SDS011;198;48.752;9.180;2024-03-02T04:21:10;24.33;;;10.83;;
422;SDS011;198;48.752;9.180;2024-03-02T04:24:37;24.20;;;10.03;;
422;SDS011;198;48.752;9.180;2024-03-02T04:28:11;24.63;;;11.00;;
422;SDS011;198;48.752;9.180;2024-03-02T04:30:38;21.83;;;10.13;;
422;SDS011;198;48.752;9.180;2024-03-02T04:33:15;29.17;;;11.53;;
422;SDS011;198;48.752;9.180;2024-03-02T04:35:47;29.80;;;10.93;;
422;SDS011;198;48.752;9.180;2024-03-02T04:38:44;25.40;;;11.30;;
422;SDS011;198;48.752;9.180;2024-03-02T04:41:56;27.83;;;9.10;;
422;SDS011;198;48.752;9.180;2024-03-02T04:48:23;24.00;;;10.53;;
422;SDS011;198;48.752;9.180;2024-03-02T04:51:00;29.03;;;10.23;;
422;SDS011;198;48.752;9.180;2024-03-02T04:53:59;24.77;;;11.70;;
422;SDS011;198;48.752;9.180;2024-03-02T04:57:28;21.83;;;10.10;;
422;SDS011;198;48.752;9.180;2024-03-02T05:00:04;25.60;;;11.37;;
422;SDS011;198;48.752;9.180;2024-03-02T05:03:00;25.83;;;11.20;;
422;SDS011;198;48.752;9.180;2024-03-02T05:05:32;27.90;;;11.30;;
422;SDS011;198;48.752;9.180;2024-03-02T05:08:12;26.87;;;10.97;;
422;SDS011;198;48.752;9.180;2024-03-02T05:10:47;35.23;;;12.00;;
422;SDS011;198;48.752;9.180;2024-03-02T05:13:13;34.90;;;11.70;;
422;SDS011;198;48.752;9.180;2024-03-02T05:15:38;27.90;;;11.93;;
422;SDS011;198;48.752;9.180;2024-03-02T05:18:05;33.47;;;11.90;;
422;SDS011;198;48.752;9.180;2024-03-02T05:20:31;27.50;;;11.60;;
422;SDS011;198;48.752;9.180;2024-03-02T05:22:56;30.10;;;11.43;;
422;SDS011;198;48.752;9.180;2024-03-02T05:25:22;27.20;;;11.23;;
422;SDS011;198;48.752;9.180;2024-03-02T05:27:47;24.23;;;10.70;;
422;SDS011;198;48.752;9.180;2024-03-02T05:30:13;27.93;;;11.33;;
422;SDS011;198;48.752;9.180;2024-03-02T05:32:39;30.43;;;11.90;;
422;SDS011;198;48.752;9.180;2024-03-02T05:35:04;24.80;;;11.17;;
422;SDS011;198;48.752;9.180;2024-03-02T05:37:30;27.53;;;11.37;;
422;SDS011;198;48.752;9.180;2024-03-02T05:39:56;28.47;;;11.30;;
422;SDS011;198;48.752;9.180;2024-03-02T05:42:21;33.80;;;11.57;;
422;SDS011;198;48.752;9.180;2024-03-02T05:44:47;31.67;;;11.20;;
422;SDS011;198;48.752;9.180;2024-03-02T05:47:12;25.13;;;10.27;;
422;SDS011;198;48.752;9.180;2024-03-02T05:49:38;22.90;;;8.97;;
422;SDS011;198;48.752;9.180;2024-03-02T05:52:04;27.23;;;10.70;;
422;SDS011;198;48.752;9.180;2024-03-02T05:54:29;33.93;;;11.50;;
422;SDS011;198;48.752;9.180;2024-03-02T05:56:55;25.83;;;11.10;;
422;SDS011;198;48.752;9.180;2024-03-02T05:59:21;23.73;;;11.40;;
422;SDS011;198;48.752;9.180;2024-03-02T06:01:46;26.00;;;10.50;;
422;SDS011;198;48.752;9.180;2024-03-02T06:04:13;23.17;;;10.23;;
422;SDS011;198;48.752;9.180;2024-03-02T06:06:39;29.23;;;9.93;;
422;SDS011;198;48.752;9.180;2024-03-02T06:09:05;24.57;;;10.60;;
422;SDS011;198;48.752;9.180;2024-03-02T06:11:35;22.40;;;9.70;;
422;SDS011;198;48.752;9.180;2024-03-02T06:14:02;24.23;;;10.03;;
422;SDS011;198;48.752;9.180;2024-03-02T06:16:28;29.23;;;10.77;;
422;SDS011;198;48.752;9.180;2024-03-02T06:18:54;27.03;;;10.80;;
422;SDS011;198;48.752;9.180;2024-03-02T06:21:22;21.70;;;9.50;;
422;SDS011;198;48.752;9.180;2024-03-02T06:23:51;19.83;;;7.80;;
422;SDS011;198;48.752;9.180;2024-03-02T06:26:17;24.37;;;9.37;;
422;SDS011;198;48.752;9.180;2024-03-02T06:28:43;20.47;;;8.97;;
422;SDS011;198;48.752;9.180;2024-03-02T06:31:09;22.10;;;7.87;;
422;SDS011;198;48.752;9.180;2024-03-02T06:33:35;17.93;;;8.30;;
422;SDS011;198;48.752;9.180;2024-03-02T06:36:01;17.87;;;7.37;;
422;SDS011;198;48.752;9.180;2024-03-02T06:38:27;21.50;;;8.30;;
422;SDS011;198;48.752;9.180;2024-03-02T06:40:55;24.00;;;7.77;;
422;SDS011;198;48.752;9.180;2024-03-02T06:43:20;20.17;;;8.03;;
422;SDS011;198;48.752;9.180;2024-03-02T06:45:49;19.63;;;8.00;;
422;SDS011;198;48.752;9.180;2024-03-02T06:48:16;18.70;;;8.43;;
422;SDS011;198;48.752;9.180;2024-03-02T06:50:50;19.93;;;8.17;;
422;SDS011;198;48.752;9.180;2024-03-02T06:53:17;12.90;;;6.23;;
422;SDS011;198;48.752;9.180;2024-03-02T06:55:46;17.17;;;7.13;;
422;SDS011;198;48.752;9.180;2024-03-02T06:58:14;17.83;;;8.20;;
422;SDS011;198;48.752;9.180;2024-03-02T07:00:41;15.97;;;7.20;;
422;SDS011;198;48.752;9.180;2024-03-02T07:03:07;17.83;;;7.07;;
422;SDS011;198;48.752;9.180;2024-03-02T07:05:32;13.10;;;6.47;;
422;SDS011;198;48.752;9.180;2024-03-02T07:07:58;18.53;;;7.93;;
422;SDS011;198;48.752;9.180;2024-03-02T07:10:24;15.70;;;7.03;;
422;SDS011;198;48.752;9.180;2024-03-02T07:12:50;23.00;;;8.13;;
422;SDS011;198;48.752;9.180;2024-03-02T07:15:15;15.97;;;7.50;;
422;SDS011;198;48.752;9.180;2024-03-02T07:17:55;15.27;;;7.50;;
422;SDS011;198;48.752;9.180;2024-03-02T07:20:20;14.93;;;7.47;;
422;SDS011;198;48.752;9.180;2024-03-02T07:22:46;14.70;;;7.10;;
422;SDS011;198;48.752;9.180;2024-03-02T07:25:12;16.50;;;8.00;;
422;SDS011;198;48.752;9.180;2024-03-02T07:27:38;16.93;;;7.33;;
422;SDS011;198;48.752;9.180;2024-03-02T07:30:04;13.47;;;5.23;;
422;SDS011;198;48.752;9.180;2024-03-02T07:32:30;19.20;;;7.60;;
422;SDS011;198;48.752;9.180;2024-03-02T07:34:56;14.97;;;7.13;;
422;SDS011;198;48.752;9.180;2024-03-02T07:37:22;19.97;;;7.00;;
422;SDS011;198;48.752;9.180;2024-03-02T07:39:48;12.87;;;5.83;;
422;SDS011;198;48.752;9.180;2024-03-02T07:42:13;12.40;;;6.70;;
422;SDS011;198;48.752;9.180;2024-03-02T07:44:39;19.60;;;6.30;;
422;SDS011;198;48.752;9.180;2024-03-02T07:47:05;12.53;;;6.07;;
422;SDS011;198;48.752;9.180;2024-03-02T07:49:31;16.40;;;7.23;;
422;SDS011;198;48.752;9.180;2024-03-02T07:51:56;13.63;;;6.40;;
422;SDS011;198;48.752;9.180;2024-03-02T07:54:22;14.83;;;6.43;;
422;SDS011;198;48.752;9.180;2024-03-02T07:56:47;16.30;;;7.17;;
422;SDS011;198;48.752;9.180;2024-03-02T07:59:13;17.50;;;7.67;;
422;SDS011;198;48.752;9.180;2024-03-02T08:01:38;12.97;;;6.53;;
422;SDS011;198;48.752;9.180;2024-03-02T08:04:04;17.70;;;7.50;;
422;SDS011;198;48.752;9.180;2024-03-02T08:06:30;14.47;;;7.40;;
422;SDS011;198;48.752;9.180;2024-03-02T08:08:56;18.00;;;6.77;;
422;SDS011;198;48.752;9.180;2024-03-02T08:11:22;18.00;;;7.37;;
422;SDS011;198;48.752;9.180;2024-03-02T08:13:48;13.83;;;7.03;;
422;SDS011;198;48.752;9.180;2024-03-02T08:16:15;16.17;;;7.50;;
422;SDS011;198;48.752;9.180;2024-03-02T08:18:43;14.93;;;6.67;;
422;SDS011;198;48.752;9.180;2024-03-02T08:21:09;16.37;;;7.93;;
422;SDS011;198;48.752;9.180;2024-03-02T08:23:35;10.93;;;5.43;;
422;SDS011;198;48.752;9.180;2024-03-02T08:26:00;13.60;;;6.00;;
422;SDS011;198;48.752;9.180;2024-03-02T08:28:26;14.07;;;6.20;;
422;SDS011;198;48.752;9.180;2024-03-02T08:30:51;12.97;;;6.33;;
422;SDS011;198;48.752;9.180;2024-03-02T08:33:17;13.27;;;6.73;;
422;SDS011;198;48.752;9.180;2024-03-02T08:35:43;13.33;;;6.03;;
422;SDS011;198;48.752;9.180;2024-03-02T08:38:09;11.37;;;6.20;;
422;SDS011;198;48.752;9.180;2024-03-02T08:40:34;16.23;;;7.00;;
422;SDS011;198;48.752;9.180;2024-03-02T08:43:00;9.27;;;5.00;;
422;SDS011;198;48.752;9.180;2024-03-02T08:45:25;16.13;;;5.30;;
422;SDS011;198;48.752;9.180;2024-03-02T08:47:51;13.10;;;6.50;;
422;SDS011;198;48.752;9.180;2024-03-02T08:50:17;11.33;;;5.70;;
422;SDS011;198;48.752;9.180;2024-03-02T08:52:43;10.53;;;6.10;;
422;SDS011;198;48.752;9.180;2024-03-02T08:55:08;10.00;;;5.83;;
422;SDS011;198;48.752;9.180;2024-03-02T08:57:36;10.83;;;5.40;;
422;SDS011;198;48.752;9.180;2024-03-02T09:00:02;11.40;;;5.30;;
422;SDS011;198;48.752;9.180;2024-03-02T09:02:27;9.60;;;5.70;;
422;SDS011;198;48.752;9.180;2024-03-02T09:04:53;9.03;;;5.10;;
422;SDS011;198;48.752;9.180;2024-03-02T09:07:19;7.13;;;4.30;;
422;SDS011;198;48.752;9.180;2024-03-02T09:09:44;12.97;;;5.27;;
422;SDS011;198;48.752;9.180;2024-03-02T09:12:10;11.80;;;5.60;;
422;SDS011;198;48.752;9.180;2024-03-02T09:14:36;9.10;;;4.50;;
422;SDS011;198;48.752;9.180;2024-03-02T09:17:02;9.80;;;5.03;;
422;SDS011;198;48.752;9.180;2024-03-02T09:19:28;9.40;;;5.50;;
422;SDS011;198;48.752;9.180;2024-03-02T09:21:54;10.90;;;5.23;;
422;SDS011;198;48.752;9.180;2024-03-02T09:24:20;8.43;;;4.67;;
422;SDS011;198;48.752;9.180;2024-03-02T09:26:46;8.20;;;4.87;;
422;SDS011;198;48.752;9.180;2024-03-02T09:29:12;7.90;;;4.73;;
422;SDS011;198;48.752;9.180;2024-03-02T09:31:41;9.60;;;5.30;;
422;SDS011;198;48.752;9.180;2024-03-02T09:34:07;9.93;;;5.40;;
422;SDS011;198;48.752;9.180;2024-03-02T09:36:33;9.30;;;5.50;;
422;SDS011;198;48.752;9.180;2024-03-02T09:38:58;15.37;;;5.10;;
422;SDS011;198;48.752;9.180;2024-03-02T09:41:24;6.70;;;4.03;;
422;SDS011;198;48.752;9.180;2024-03-02T09:43:50;7.00;;;4.30;;
422;SDS011;198;48.752;9.180;2024-03-02T09:46:16;7.77;;;4.60;;
422;SDS011;198;48.752;9.180;2024-03-02T09:48:42;5.00;;;3.70;;
422;SDS011;198;48.752;9.180;2024-03-02T09:51:09;4.17;;;3.30;;
422;SDS011;198;48.752;9.180;2024-03-02T09:53:35;3.80;;;2.97;;
422;SDS011;198;48.752;9.180;2024-03-02T09:56:01;11.60;;;3.60;;
422;SDS011;198;48.752;9.180;2024-03-02T09:58:27;4.87;;;3.50;;
422;SDS011;198;48.752;9.180;2024-03-02T10:00:52;5.00;;;3.43;;
422;SDS011;198;48.752;9.180;2024-03-02T10:03:18;5.37;;;3.50;;
422;SDS011;198;48.752;9.180;2024-03-02T10:05:44;4.83;;;3.17;;
422;SDS011;198;48.752;9.180;2024-03-02T10:08:10;3.70;;;2.63;;
422;SDS011;198;48.752;9.180;2024-03-02T10:10:39;4.93;;;3.30;;
422;SDS011;198;48.752;9.180;2024-03-02T10:13:09;4.23;;;2.50;;
422;SDS011;198;48.752;9.180;2024-03-02T10:15:36;4.77;;;3.50;;
422;SDS011;198;48.752;9.180;2024-03-02T10:18:03;9.13;;;4.00;;
422;SDS011;198;48.752;9.180;2024-03-02T10:20:29;7.73;;;3.90;;
422;SDS011;198;48.752;9.180;2024-03-02T10:22:55;9.33;;;3.70;;
422;SDS011;198;48.752;9.180;2024-03-02T10:25:34;6.13;;;3.63;;
422;SDS011;198;48.752;9.180;2024-03-02T10:28:00;4.37;;;3.40;;
422;SDS011;198;48.752;9.180;2024-03-02T10:30:26;4.23;;;3.30;;
422;SDS011;198;48.752;9.180;2024-03-02T10:32:53;4.47;;;3.40;;
422;SDS011;198;48.752;9.180;2024-03-02T10:35:20;4.43;;;3.40;;
422;SDS011;198;48.752;9.180;2024-03-02T10:37:47;5.23;;;3.83;;
422;SDS011;198;48.752;9.180;2024-03-02T10:40:13;4.50;;;3.40;;
422;SDS011;198;48.752;9.180;2024-03-02T10:42:39;5.20;;;3.13;;
422;SDS011;198;48.752;9.180;2024-03-02T10:45:07;5.40;;;3.23;;
422;SDS011;198;48.752;9.180;2024-03-02T10:47:38;4.90;;;2.67;;
422;SDS011;198;48.752;9.180;2024-03-02T10:50:04;6.10;;;3.77;;
422;SDS011;198;48.752;9.180;2024-03-02T10:52:39;6.70;;;3.93;;
422;SDS011;198;48.752;9.180;2024-03-02T10:55:05;12.73;;;4.63;;
422;SDS011;198;48.752;9.180;2024-03-02T10:57:53;9.00;;;4.97;;
422;SDS011;198;48.752;9.180;2024-03-02T11:00:19;5.03;;;3.23;;
422;SDS011;198;48.752;9.180;2024-03-02T11:02:56;5.23;;;3.60;;
422;SDS011;198;48.752;9.180;2024-03-02T11:05:25;4.50;;;3.10;;
422;SDS011;198;48.752;9.180;2024-03-02T11:07:53;2.93;;;2.30;;
422;SDS011;198;48.752;9.180;2024-03-02T11:10:34;4.37;;;2.37;;
422;SDS011;198;48.752;9.180;2024-03-02T11:13:04;7.33;;;3.63;;
422;SDS011;198;48.752;9.180;2024-03-02T11:15:31;3.00;;;2.40;;
422;SDS011;198;48.752;9.180;2024-03-02T11:18:01;2.47;;;1.70;;
422;SDS011;198;48.752;9.180;2024-03-02T11:20:30;4.87;;;2.30;;
422;SDS011;198;48.752;9.180;2024-03-02T11:22:56;2.20;;;1.30;;
422;SDS011;198;48.752;9.180;2024-03-02T11:25:25;2.40;;;2.00;;
422;SDS011;198;48.752;9.180;2024-03-02T11:31:02;2.37;;;1.50;;
422;SDS011;198;48.752;9.180;2024-03-02T11:33:09;1.50;;;1.27;;
422;SDS011;198;48.752;9.180;2024-03-02T11:35:35;2.67;;;1.30;;
422;SDS011;198;48.752;9.180;2024-03-02T11:38:08;0.90;;;0.90;;
422;SDS011;198;48.752;9.180;2024-03-02T11:40:34;1.57;;;1.00;;
422;SDS011;198;48.752;9.180;2024-03-02T11:43:00;1.13;;;1.10;;
422;SDS011;198;48.752;9.180;2024-03-02T11:45:26;1.93;;;1.70;;
422;SDS011;198;48.752;9.180;2024-03-02T11:47:56;1.57;;;1.47;;
422;SDS011;198;48.752;9.180;2024-03-02T11:50:35;4.47;;;2.80;;
422;SDS011;198;48.752;9.180;2024-03-02T11:53:08;1.50;;;1.37;;
422;SDS011;198;48.752;9.180;2024-03-02T11:55:35;1.47;;;1.20;;
422;SDS011;198;48.752;9.180;2024-03-02T11:58:02;0.70;;;0.60;;
422;SDS011;198;48.752;9.180;2024-03-02T12:00:31;1.27;;;0.57;;
422;SDS011;198;48.752;9.180;2024-03-02T12:03:00;0.80;;;0.70;;
422;SDS011;198;48.752;9.180;2024-03-02T12:05:28;1.00;;;0.90;;
422;SDS011;198;48.752;9.180;2024-03-02T12:07:55;1.00;;;0.97;;
422;SDS011;198;48.752;9.180;2024-03-02T12:10:25;1.30;;;1.20;;
422;SDS011;198;48.752;9.180;2024-03-02T12:13:10;2.83;;;1.13;;
422;SDS011;198;48.752;9.180;2024-03-02T12:15:37;0.90;;;0.80;;
422;SDS011;198;48.752;9.180;2024-03-02T12:18:04;0.80;;;0.70;;
422;SDS011;198;48.752;9.180;2024-03-02T12:20:31;1.07;;;0.90;;
422;SDS011;198;48.752;9.180;2024-03-02T12:22:58;1.63;;;1.27;;
422;SDS011;198;48.752;9.180;2024-03-02T12:25:25;0.80;;;0.70;;
422;SDS011;198;48.752;9.180;2024-03-02T12:27:53;1.10;;;1.00;;
422;SDS011;198;48.752;9.180;2024-03-02T12:30:20;0.80;;;0.70;;
422;SDS011;198;48.752;9.180;2024-03-02T12:32:46;1.50;;;1.40;;
422;SDS011;198;48.752;9.180;2024-03-02T12:35:13;1.77;;;1.40;;
422;SDS011;198;48.752;9.180;2024-03-02T12:37:42;2.63;;;1.70;;
422;SDS011;198;48.752;9.180;2024-03-02T12:40:09;1.83;;;1.50;;
422;SDS011;198;48.752;9.180;2024-03-02T12:42:39;1.00;;;0.90;;
422;SDS011;198;48.752;9.180;2024-03-02T12:45:06;2.13;;;1.27;;
422;SDS011;198;48.752;9.180;2024-03-02T12:47:32;1.80;;;1.20;;
422;SDS011;198;48.752;9.180;2024-03-02T12:49:59;2.60;;;1.30;;
422;SDS011;198;48.752;9.180;2024-03-02T12:52:25;3.90;;;1.23;;
422;SDS011;198;48.752;9.180;2024-03-02T12:54:50;1.33;;;1.23;;
422;SDS011;198;48.752;9.180;2024-03-02T12:57:18;0.83;;;0.80;;
422;SDS011;198;48.752;9.180;2024-03-02T12:59:46;2.00;;;1.10;;
422;SDS011;198;48.752;9.180;2024-03-02T13:02:19;1.40;;;1.27;;
422;SDS011;198;48.752;9.180;2024-03-02T13:04:51;3.50;;;1.23;;
422;SDS011;198;48.752;9.180;2024-03-02T13:07:19;2.20;;;1.20;;
422;SDS011;198;48.752;9.180;2024-03-02T13:09:45;1.50;;;1.03;;
422;SDS011;198;48.752;9.180;2024-03-02T13:12:11;4.27;;;0.93;;
422;SDS011;198;48.752;9.180;2024-03-02T13:14:36;0.90;;;0.83;;
422;SDS011;198;48.752;9.180;2024-03-02T13:17:02;1.40;;;1.30;;
422;SDS011;198;48.752;9.180;2024-03-02T13:19:30;1.57;;;1.57;;
422;SDS011;198;48.752;9.180;2024-03-02T13:21:56;1.40;;;1.33;;
422;SDS011;198;48.752;9.180;2024-03-02T13:24:22;1.30;;;1.20;;
422;SDS011;198;48.752;9.180;2024-03-02T13:26:50;1.03;;;1.03;;
422;SDS011;198;48.752;9.180;2024-03-02T13:29:20;2.10;;;1.20;;
422;SDS011;198;48.752;9.180;2024-03-02T13:31:46;5.87;;;1.17;;
422;SDS011;198;48.752;9.180;2024-03-02T13:34:11;2.70;;;1.17;;
422;SDS011;198;48.752;9.180;2024-03-02T13:36:37;1.17;;;0.90;;
422;SDS011;198;48.752;9.180;2024-03-02T13:39:03;1.00;;;0.90;;
422;SDS011;198;48.752;9.180;2024-03-02T13:41:30;1.20;;;1.10;;
422;SDS011;198;48.752;9.180;2024-03-02T13:43:56;1.00;;;0.90;;
422;SDS011;198;48.752;9.180;2024-03-02T13:46:22;0.90;;;0.80;;
422;SDS011;198;48.752;9.180;2024-03-02T13:48:48;1.80;;;1.10;;
422;SDS011;198;48.752;9.180;2024-03-02T13:51:13;0.83;;;0.77;;
422;SDS011;198;48.752;9.180;2024-03-02T13:53:39;3.10;;;1.33;;
422;SDS011;198;48.752;9.180;2024-03-02T13:56:05;2.60;;;1.40;;
422;SDS011;198;48.752;9.180;2024-03-02T13:58:30;1.53;;;1.17;;
422;SDS011;198;48.752;9.180;2024-03-02T14:00:57;1.20;;;1.10;;
422;SDS011;198;48.752;9.180;2024-03-02T14:03:22;2.20;;;1.17;;
422;SDS011;198;48.752;9.180;2024-03-02T14:05:48;1.33;;;0.93;;
422;SDS011;198;48.752;9.180;2024-03-02T14:08:15;0.90;;;0.80;;
422;SDS011;198;48.752;9.180;2024-03-02T14:10:40;1.07;;;1.00;;
422;SDS011;198;48.752;9.180;2024-03-02T14:13:07;1.37;;;1.10;;
422;SDS011;198;48.752;9.180;2024-03-02T14:15:33;1.00;;;0.90;;
422;SDS011;198;48.752;9.180;2024-03-02T14:17:58;1.27;;;1.00;;
422;SDS011;198;48.752;9.180;2024-03-02T14:20:24;1.53;;;1.33;;
422;SDS011;198;48.752;9.180;2024-03-02T14:22:49;3.80;;;1.07;;
422;SDS011;198;48.752;9.180;2024-03-02T14:25:15;1.00;;;0.90;;
422;SDS011;198;48.752;9.180;2024-03-02T14:27:41;1.20;;;1.10;;
422;SDS011;198;48.752;9.180;2024-03-02T14:30:07;1.67;;;1.10;;
422;SDS011;198;48.752;9.180;2024-03-02T14:32:33;1.00;;;0.90;;
422;SDS011;198;48.752;9.180;2024-03-02T14:34:58;1.40;;;1.10;;
422;SDS011;198;48.752;9.180;2024-03-02T14:37:24;1.33;;;1.20;;
422;SDS011;198;48.752;9.180;2024-03-02T14:39:49;0.87;;;0.80;;
422;SDS011;198;48.752;9.180;2024-03-02T14:42:15;0.97;;;0.87;;
422;SDS011;198;48.752;9.180;2024-03-02T14:44:41;0.87;;;0.70;;
422;SDS011;198;48.752;9.180;2024-03-02T14:47:06;1.90;;;0.87;;
422;SDS011;198;48.752;9.180;2024-03-02T14:49:32;3.40;;;1.00;;
422;SDS011;198;48.752;9.180;2024-03-02T14:52:01;1.67;;;0.93;;
422;SDS011;198;48.752;9.180;2024-03-02T14:54:26;1.13;;;1.03;;
422;SDS011;198;48.752;9.180;2024-03-02T14:56:52;1.07;;;0.97;;
422;SDS011;198;48.752;9.180;2024-03-02T14:59:17;1.60;;;0.90;;
422;SDS011;198;48.752;9.180;2024-03-02T15:01:43;2.20;;;1.10;;
422;SDS011;198;48.752;9.180;2024-03-02T15:04:09;0.93;;;0.80;;
422;SDS011;198;48.752;9.180;2024-03-02T15:06:35;0.93;;;0.83;;
422;SDS011;198;48.752;9.180;2024-03-02T15:09:00;0.83;;;0.77;;
422;SDS011;198;48.752;9.180;2024-03-02T15:11:26;1.43;;;0.93;;
422;SDS011;198;48.752;9.180;2024-03-02T15:13:52;0.90;;;0.80;;
422;SDS011;198;48.752;9.180;2024-03-02T15:16:17;0.70;;;0.60;;
422;SDS011;198;48.752;9.180;2024-03-02T15:18:43;2.40;;;0.80;;
422;SDS011;198;48.752;9.180;2024-03-02T15:21:10;0.97;;;0.80;;
422;SDS011;198;48.752;9.180;2024-03-02T15:23:36;2.37;;;0.77;;
422;SDS011;198;48.752;9.180;2024-03-02T15:26:01;2.30;;;0.90;;
422;SDS011;198;48.752;9.180;2024-03-02T15:28:27;1.20;;;0.80;;
422;SDS011;198;48.752;9.180;2024-03-02T15:30:52;3.10;;;1.30;;
422;SDS011;198;48.752;9.180;2024-03-02T15:33:18;1.10;;;1.00;;
422;SDS011;198;48.752;9.180;2024-03-02T15:35:43;1.73;;;1.33;;
422;SDS011;198;48.752;9.180;2024-03-02T15:38:09;1.17;;;0.90;;
422;SDS011;198;48.752;9.180;2024-03-02T15:40:38;1.87;;;0.83;;
422;SDS011;198;48.752;9.180;2024-03-02T15:43:03;3.47;;;1.30;;
422;SDS011;198;48.752;9.180;2024-03-02T15:45:29;1.00;;;0.97;;
422;SDS011;198;48.752;9.180;2024-03-02T15:47:58;3.47;;;1.40;;
422;SDS011;198;48.752;9.180;2024-03-02T15:50:25;1.40;;;1.40;;
422;SDS011;198;48.752;9.180;2024-03-02T15:52:50;1.60;;;1.10;;
422;SDS011;198;48.752;9.180;2024-03-02T15:55:16;6.73;;;1.23;;
422;SDS011;198;48.752;9.180;2024-03-02T15:57:42;4.73;;;1.57;;